createdAt,value
2023-02-19T00:20:15.270Z,15.68
2023-02-19T00:34:16.497Z,15.71
2023-02-19T00:37:55.519Z,15.74
2023-02-19T00:52:38.110Z,15.71
2023-02-19T01:55:21.599Z,14.71
2023-02-19T01:58:17.879Z,14.68
2023-02-19T02:00:47.893Z,14.64
2023-02-19T02:03:50.533Z,14.63
2023-02-19T02:07:17.372Z,14.58
2023-02-19T02:10:16.498Z,14.46
2023-02-19T02:13:20.386Z,14.27
2023-02-19T02:16:54.068Z,14.09
2023-02-19T02:28:08.229Z,14.07
2023-02-19T02:31:17.147Z,14.06
2023-02-19T02:33:47.492Z,13.98
2023-02-19T02:36:21.817Z,13.94
2023-02-19T02:38:53.912Z,13.87
2023-02-19T02:41:22.739Z,13.83
2023-02-19T02:43:51.009Z,13.77
2023-02-19T02:49:23.952Z,13.69
2023-02-19T02:55:18.011Z,13.72
2023-02-19T02:57:50.553Z,13.65
2023-02-19T03:00:19.986Z,13.66
2023-02-19T03:02:48.592Z,13.64
2023-02-19T03:05:48.585Z,13.54
2023-02-19T03:08:47.828Z,13.45
2023-02-19T03:11:49.846Z,13.29
2023-02-19T03:17:17.585Z,13.17
2023-02-19T03:20:18.777Z,13.27
2023-02-19T03:22:59.363Z,13.19
2023-02-19T03:25:50.559Z,13.07
2023-02-19T03:28:49.558Z,13.02
2023-02-19T03:31:22.103Z,12.98
2023-02-19T03:33:58.728Z,12.96
2023-02-19T03:42:19.642Z,13.03
2023-02-19T03:45:03.768Z,13.08
2023-02-19T03:47:50.910Z,13.16
2023-02-19T03:51:18.402Z,13.12
2023-02-19T03:54:19.616Z,13.05
2023-02-19T03:57:18.402Z,12.97
2023-02-19T04:00:29.701Z,13.03
2023-02-19T04:03:29.707Z,13.08
2023-02-19T04:06:20.526Z,13.02
2023-02-19T04:09:31.561Z,13.03
2023-02-19T04:11:59.766Z,12.96
2023-02-19T04:18:09.133Z,12.97
2023-02-19T04:20:49.920Z,12.83
2023-02-19T04:23:24.736Z,12.66
2023-02-19T04:26:31.408Z,12.67
2023-02-19T04:29:00.316Z,12.70
2023-02-19T04:31:31.347Z,12.78
2023-02-19T04:34:20.621Z,12.68
2023-02-19T04:36:50.204Z,12.65
2023-02-19T04:41:52.901Z,12.84
2023-02-19T04:44:21.498Z,12.79
2023-02-19T04:46:49.858Z,12.67
2023-02-19T04:49:21.138Z,12.47
2023-02-19T04:54:19.719Z,12.13
2023-02-19T04:56:51.763Z,12.00
2023-02-19T04:59:20.354Z,11.97
2023-02-19T05:01:51.831Z,12.06
2023-02-19T05:04:19.943Z,12.02
2023-02-19T05:06:51.940Z,12.04
2023-02-19T05:09:20.332Z,12.17
2023-02-19T05:11:51.704Z,12.26
2023-02-19T05:14:21.406Z,12.35
2023-02-19T05:16:49.838Z,12.42
2023-02-19T05:19:21.304Z,12.31
2023-02-19T05:21:49.223Z,12.11
2023-02-19T05:24:17.757Z,11.98
2023-02-19T05:26:52.688Z,12.00
2023-02-19T05:29:21.089Z,11.94
2023-02-19T05:31:50.129Z,12.05
2023-02-19T05:34:21.637Z,12.14
2023-02-19T05:36:49.733Z,12.25
2023-02-19T05:39:50.814Z,12.38
2023-02-19T05:42:22.489Z,12.45
2023-02-19T05:47:52.530Z,12.31
2023-02-19T05:50:53.555Z,12.23
2023-02-19T05:53:22.197Z,12.29
2023-02-19T05:58:51.136Z,11.82
2023-02-19T06:04:47.686Z,11.63
2023-02-19T06:07:51.407Z,11.86
2023-02-19T06:15:50.579Z,11.78
2023-02-19T06:27:20.366Z,11.43
2023-02-19T06:29:55.072Z,11.46
2023-02-19T06:32:50.797Z,11.48
2023-02-19T06:35:50.086Z,11.45
2023-02-19T06:38:20.551Z,11.48
2023-02-19T06:40:50.807Z,11.44
2023-02-19T06:46:50.696Z,11.72
2023-02-19T06:52:04.568Z,11.59
2023-02-19T06:54:50.715Z,11.50
2023-02-19T07:00:49.654Z,11.23
2023-02-19T07:03:17.985Z,11.10
2023-02-19T07:05:53.022Z,11.09
2023-02-19T07:14:18.468Z,10.92
2023-02-19T07:16:53.226Z,10.80
2023-02-19T07:19:51.698Z,10.72
2023-02-19T07:22:19.937Z,10.62
2023-02-19T07:24:51.815Z,10.60
2023-02-19T07:27:20.476Z,10.53
2023-02-19T07:29:51.763Z,10.40
2023-02-19T07:32:20.038Z,10.31
2023-02-19T07:34:51.088Z,10.25
2023-02-19T07:43:22.602Z,10.26
2023-02-19T07:45:51.667Z,10.28
2023-02-19T07:48:49.551Z,10.32
2023-02-19T07:54:22.591Z,10.40
2023-02-19T07:56:50.977Z,10.27
2023-02-19T08:02:50.681Z,9.95
2023-02-19T08:05:20.734Z,9.75
2023-02-19T08:07:51.850Z,9.64
2023-02-19T08:13:54.516Z,9.38
2023-02-19T08:16:36.711Z,9.27
2023-02-19T08:19:19.445Z,9.25
2023-02-19T08:21:53.635Z,9.20
2023-02-19T08:24:22.101Z,9.21
2023-02-19T08:26:50.804Z,9.33
2023-02-19T08:29:20.086Z,9.57
2023-02-19T08:31:54.153Z,9.77
2023-02-19T08:34:22.497Z,9.84
2023-02-19T08:36:50.799Z,9.69
2023-02-19T08:39:22.230Z,9.48
2023-02-19T08:41:58.294Z,9.26
2023-02-19T08:44:49.839Z,9.13
2023-02-19T08:47:21.084Z,9.03
2023-02-19T08:49:50.779Z,8.98
2023-02-19T08:52:22.226Z,8.96
2023-02-19T08:54:50.622Z,9.01
2023-02-19T08:57:22.028Z,9.22
2023-02-19T08:59:50.391Z,9.28
2023-02-19T09:02:21.651Z,9.30
2023-02-19T09:04:58.090Z,9.49
2023-02-19T09:07:51.004Z,9.77
2023-02-19T09:10:20.788Z,9.70
2023-02-19T09:15:19.365Z,9.37
2023-02-19T09:17:54.442Z,9.17
2023-02-19T09:20:22.846Z,8.97
2023-02-19T09:22:51.184Z,8.81
2023-02-19T09:25:21.939Z,8.68
2023-02-19T09:27:55.103Z,8.59
2023-02-19T09:30:23.619Z,8.50
2023-02-19T09:32:52.197Z,8.44
2023-02-19T09:35:20.485Z,8.39
2023-02-19T09:37:52.095Z,8.33
2023-02-19T09:40:23.345Z,8.23
2023-02-19T09:42:52.924Z,8.19
2023-02-19T09:45:48.451Z,8.19
2023-02-19T09:48:16.722Z,8.19
2023-02-19T09:50:52.987Z,8.17
2023-02-19T09:53:49.942Z,8.13
2023-02-19T09:56:21.818Z,8.07
2023-02-19T09:58:56.129Z,8.04
2023-02-19T10:01:50.934Z,8.05
2023-02-19T10:04:22.079Z,8.00
2023-02-19T10:06:52.458Z,7.95
2023-02-19T10:09:50.157Z,7.93
2023-02-19T10:12:55.840Z,7.93
2023-02-19T10:15:51.289Z,7.92
2023-02-19T10:21:07.139Z,7.92
2023-02-19T10:23:55.460Z,7.92
2023-02-19T10:26:24.875Z,7.94
2023-02-19T10:28:55.002Z,7.94
2023-02-19T10:31:40.169Z,7.89
2023-02-19T10:34:24.011Z,7.81
2023-02-19T10:36:54.048Z,7.70
2023-02-19T10:39:40.982Z,7.66
2023-02-19T10:42:24.545Z,7.62
2023-02-19T10:47:24.560Z,7.56
2023-02-19T10:49:56.559Z,7.52
2023-02-19T10:52:55.649Z,7.54
2023-02-19T10:56:02.459Z,7.48
2023-02-19T10:58:51.143Z,7.36
2023-02-19T11:01:27.868Z,7.36
2023-02-19T11:04:21.277Z,7.40
2023-02-19T11:06:49.760Z,7.37
2023-02-19T11:09:22.728Z,7.38
2023-02-19T11:11:55.167Z,7.38
2023-02-19T11:14:26.109Z,7.38
2023-02-19T11:17:25.704Z,7.39
2023-02-19T11:23:30.061Z,7.32
2023-02-19T11:30:20.768Z,7.22
2023-02-19T11:33:20.657Z,7.15
2023-02-19T11:36:20.587Z,7.11
2023-02-19T11:39:18.196Z,7.04
2023-02-19T11:42:04.805Z,7.04
2023-02-19T11:45:21.035Z,7.02
2023-02-19T11:48:28.128Z,6.92
2023-02-19T11:55:21.366Z,6.86
2023-02-19T11:58:23.225Z,6.86
2023-02-19T12:04:24.128Z,6.83
2023-02-19T12:07:30.952Z,6.84
2023-02-19T12:14:20.256Z,6.75
2023-02-19T12:17:23.145Z,6.72
2023-02-19T12:20:18.186Z,6.74
2023-02-19T12:23:24.865Z,6.75
2023-02-19T12:27:10.928Z,6.71
2023-02-19T12:30:23.348Z,6.70
2023-02-19T12:37:18.055Z,6.62
2023-02-19T12:40:18.556Z,6.58
2023-02-19T12:43:24.792Z,6.56
2023-02-19T12:46:18.348Z,6.53
2023-02-19T12:49:27.617Z,6.52
2023-02-19T12:52:19.090Z,6.48
2023-02-19T12:55:21.315Z,6.52
2023-02-19T12:58:18.018Z,6.51
2023-02-19T13:01:21.205Z,6.50
2023-02-19T13:07:18.197Z,6.42
2023-02-19T13:09:52.736Z,6.38
2023-02-19T13:15:16.064Z,6.33
2023-02-19T13:18:21.197Z,6.31
2023-02-19T13:20:52.563Z,6.27
2023-02-19T13:23:47.857Z,6.26
2023-02-19T13:27:21.274Z,6.26
2023-02-19T13:30:22.476Z,6.26
2023-02-19T13:33:16.224Z,6.22
2023-02-19T13:36:19.352Z,6.21
2023-02-19T13:39:11.449Z,6.17
2023-02-19T13:42:18.861Z,6.12
2023-02-19T13:44:58.572Z,6.05
2023-02-19T13:51:08.988Z,6.00
2023-02-19T13:54:16.864Z,6.01
2023-02-19T13:56:48.603Z,5.99
2023-02-19T14:00:19.446Z,6.02
2023-02-19T14:03:19.591Z,5.99
2023-02-19T14:06:46.367Z,5.94
2023-02-19T14:09:49.025Z,5.88
2023-02-19T14:12:23.271Z,5.85
2023-02-19T14:15:26.640Z,5.89
2023-02-19T14:18:22.349Z,5.91
2023-02-19T14:20:55.514Z,5.93
2023-02-19T14:23:27.081Z,5.94
2023-02-19T14:26:17.101Z,5.89
2023-02-19T14:28:50.157Z,5.84
2023-02-19T14:31:48.428Z,5.78
2023-02-19T14:34:24.418Z,5.74
2023-02-19T14:37:27.445Z,5.73
2023-02-19T14:40:46.791Z,5.74
2023-02-19T14:43:24.778Z,5.76
2023-02-19T14:46:44.874Z,5.80
2023-02-19T14:49:28.628Z,5.80
2023-02-19T14:52:48.382Z,5.82
2023-02-19T15:02:22.540Z,5.70
2023-02-19T15:05:25.409Z,5.64
2023-02-19T15:08:19.921Z,5.66
2023-02-19T15:10:49.271Z,5.78
2023-02-19T15:15:48.087Z,6.16
2023-02-19T15:18:24.008Z,6.26
2023-02-19T15:21:21.252Z,6.21
2023-02-19T15:23:49.773Z,6.22
2023-02-19T15:26:24.120Z,6.21
2023-02-19T15:29:18.248Z,6.22
2023-02-19T15:31:53.426Z,6.24
2023-02-19T15:36:52.081Z,6.58
2023-02-19T15:42:22.616Z,6.94
2023-02-19T15:45:26.370Z,7.02
2023-02-19T15:48:20.477Z,7.10
2023-02-19T15:51:22.918Z,7.28
2023-02-19T15:54:31.499Z,7.59
2023-02-19T15:57:26.752Z,7.93
2023-02-19T16:00:52.529Z,8.21
2023-02-19T16:03:26.612Z,8.36
2023-02-19T16:06:06.727Z,8.52
2023-02-19T16:12:52.377Z,8.94
2023-02-19T16:22:46.878Z,9.39
2023-02-19T16:25:46.994Z,9.51
2023-02-19T16:28:45.798Z,9.85
2023-02-19T16:31:47.787Z,10.09
2023-02-19T16:34:47.812Z,10.26
2023-02-19T16:37:53.122Z,10.70
2023-02-19T16:44:42.886Z,11.43
2023-02-19T16:47:49.172Z,11.73
2023-02-19T16:50:33.181Z,12.00
2023-02-19T16:53:48.523Z,12.03
2023-02-19T17:40:07.985Z,14.63
2023-02-19T17:42:37.022Z,14.73
2023-02-19T17:45:05.726Z,14.88
2023-02-19T17:48:18.126Z,14.73
2023-02-19T17:51:16.055Z,14.62
2023-02-19T17:54:19.565Z,14.54
2023-02-19T17:57:15.434Z,14.93
2023-02-19T17:59:46.998Z,15.40
2023-02-19T18:02:15.257Z,15.85
2023-02-19T18:07:16.141Z,16.08
2023-02-19T18:10:15.100Z,15.90
2023-02-19T18:13:17.244Z,15.49
2023-02-19T18:15:49.151Z,15.06
2023-02-19T18:18:17.512Z,14.86
2023-02-19T18:21:14.592Z,14.72
2023-02-19T18:24:15.259Z,14.59
2023-02-19T18:27:15.606Z,14.51
2023-02-19T18:30:20.153Z,14.49
2023-02-19T18:32:54.784Z,14.54
2023-02-19T18:42:21.707Z,15.16
2023-02-19T18:48:44.302Z,16.46
2023-02-19T18:51:02.874Z,16.17
2023-02-19T18:53:47.021Z,16.09
2023-02-19T18:56:15.781Z,15.89
2023-02-19T18:58:44.215Z,15.66
2023-02-19T19:04:20.319Z,15.31
2023-02-19T19:07:18.828Z,15.20
2023-02-19T19:10:19.385Z,15.01
2023-02-19T19:13:15.622Z,14.91
2023-02-19T19:16:17.725Z,14.91
2023-02-19T19:18:49.100Z,14.88
2023-02-19T19:21:17.827Z,14.93
2023-02-19T19:25:02.187Z,15.10
2023-02-19T19:30:50.873Z,15.09
2023-02-19T19:33:20.351Z,15.09
2023-02-19T19:35:51.148Z,15.13
2023-02-19T19:38:19.520Z,15.15
2023-02-19T19:40:47.859Z,15.23
2023-02-19T19:43:16.124Z,15.31
2023-02-19T19:45:50.198Z,15.61
2023-02-19T19:48:18.575Z,15.90
2023-02-19T19:50:49.424Z,15.85
2023-02-19T19:53:18.150Z,15.86
2023-02-19T19:55:47.644Z,15.97
2023-02-19T19:58:23.609Z,15.89
2023-02-19T20:00:55.501Z,15.95
2023-02-19T20:03:24.015Z,16.07
2023-02-19T20:05:52.407Z,16.09
2023-02-19T20:08:20.907Z,16.13
2023-02-19T20:10:58.088Z,16.30
2023-02-19T20:13:37.388Z,16.43
2023-02-19T20:16:06.980Z,16.33
2023-02-19T20:19:17.660Z,16.48
2023-02-19T20:25:13.464Z,17.43
2023-02-19T20:27:49.870Z,17.72
2023-02-19T20:32:48.408Z,17.93
2023-02-19T20:35:18.558Z,17.90
2023-02-19T20:37:54.335Z,17.78
2023-02-19T20:40:31.315Z,17.69
2023-02-19T20:45:40.403Z,17.53
2023-02-19T20:48:19.404Z,17.60
2023-02-19T20:50:48.397Z,17.64
2023-02-19T20:53:19.191Z,17.78
2023-02-19T20:55:47.451Z,18.13
2023-02-19T20:58:15.858Z,18.13
2023-02-19T21:00:47.261Z,17.96
2023-02-19T21:03:16.062Z,17.73
2023-02-19T21:05:45.830Z,17.54
2023-02-19T21:08:15.011Z,17.47
2023-02-19T21:10:43.308Z,17.54
2023-02-19T21:13:12.038Z,17.56
2023-02-19T21:15:46.509Z,17.83
2023-02-19T21:18:18.422Z,18.04
2023-02-19T21:20:46.844Z,18.16
2023-02-19T21:23:15.468Z,18.24
2023-02-19T21:25:46.405Z,18.22
2023-02-19T21:28:20.986Z,18.17
2023-02-19T21:30:49.884Z,18.03
2023-02-19T21:33:18.784Z,17.87
2023-02-19T21:35:50.141Z,17.92
2023-02-19T21:38:18.489Z,18.02
2023-02-19T21:43:31.270Z,18.09
2023-02-19T21:46:09.232Z,18.14
2023-02-19T21:49:20.795Z,18.28
2023-02-19T21:52:27.036Z,18.27
2023-02-19T21:55:20.088Z,18.34
2023-02-19T21:58:21.809Z,18.39
2023-02-19T22:13:49.378Z,18.50
2023-02-19T22:16:21.232Z,18.51
2023-02-19T22:19:21.422Z,18.28
2023-02-19T22:21:51.415Z,18.29
2023-02-19T22:24:22.250Z,18.37
2023-02-19T22:26:56.434Z,18.47
2023-02-19T22:29:25.204Z,18.48
2023-02-19T22:35:20.296Z,18.57
2023-02-19T22:37:53.401Z,18.51
2023-02-19T22:40:21.678Z,18.27
2023-02-19T22:42:51.900Z,18.01
2023-02-19T22:45:20.197Z,17.82
2023-02-19T22:47:48.469Z,17.63
2023-02-19T22:50:23.301Z,17.44
2023-02-19T22:52:55.383Z,17.21
2023-02-19T22:55:23.948Z,17.02
2023-02-19T22:57:52.297Z,16.95
2023-02-19T23:00:22.444Z,16.87
2023-02-19T23:02:50.825Z,16.84
2023-02-19T23:05:19.107Z,16.79
2023-02-19T23:07:47.679Z,16.73
2023-02-19T23:10:16.063Z,16.67
2023-02-19T23:12:44.386Z,16.62
2023-02-19T23:15:12.986Z,16.54
2023-02-19T23:17:42.596Z,16.51
2023-02-19T23:20:11.181Z,16.47
2023-02-19T23:22:39.703Z,16.42
2023-02-19T23:25:08.594Z,16.38
2023-02-19T23:27:36.841Z,16.34
2023-02-19T23:30:05.682Z,16.31
2023-02-19T23:32:34.115Z,16.30
2023-02-19T23:35:05.475Z,16.27
2023-02-19T23:37:33.852Z,16.25
2023-02-19T23:40:05.076Z,16.22
2023-02-19T23:42:32.992Z,16.16
2023-02-19T23:45:01.324Z,16.15
2023-02-19T23:47:30.703Z,16.16
2023-02-19T23:49:59.075Z,16.16
2023-02-19T23:52:27.365Z,16.15
2023-02-19T23:54:57.458Z,16.15
2023-02-19T23:57:25.784Z,16.15
2023-02-19T23:59:54.359Z,16.11
